Licenciado Gustavo Díaz Ordaz International Airport
MMPR : rendu visible

Aérodrome :











RETROUVEZ-NOUS SUR...

 
LOGIN :

S'inscrire | Disclaimer

   EN    FR    IT 

 









Légende :    VFR   VFR Marginal   IFR   IFR Intensif   IFR Très Intensif
Visi : 
Plafond : 
>= 8 km
>= 3000ft
5 à 8 km
1000 à 3000 ft
1500m à 5 km
500 à 1000 ft
800 à 1500m
200 à 500 ft
< 800m
< 200 ft
Symboles :   Orages  Brouillard  Fortes neiges  Fortes précipitations  Vent > 20 kt







- Altitude de l'aérodrome : 23 ft
- Code IATA : PVR


MMPR - Licenciado Gustavo Díaz Ordaz International

DERNIER METAR :
  • 181252Z 00000KT 10SM OVC020 22/22 A2990 RMK 8/5// BINOVC

METARs EXPIRÉS :
  • 181144Z 00000KT 12SM OVC020 22/22 A2988 RMK SLP117 57002 951 8/5//
  • 181043Z 16004KT 12SM BKN020 23/22 A2989 RMK 8/500

TAF TAF MMPR
Valide du 18 à 12h jusqu'au 19 à 18h UTC


181029Z 1812/1918 22005KT P6SM BKN020 TX27/1819Z TN21/1812Z
FM181800 23010KT P6SM SCT020 BKN250
FM190400 24005KT P6SM SCT250
FM190800 00000KT 6SM HZ SCT015 SCT250
TEMPO 1910/1914 BKN020
FM191800 23010KT P6SM SCT020 SCT250
FIR MMFR / Amérique du Nord



MET'MAP, la Météo Aéronautique d'un coup d'oeil ! - Copyright ORBIFLY Décembre 2007 - Disclaimer

ORBIFLY MET'MAP TEAM :

Programmation & Développement : Alexandra Zaïnal
Conception & Développement : Baudouin d'Aumeries
Co-Programmation & Développement : Marc-Olivier Méhu
Soutien technique & logistique : Manuel Goepfert

Contact : metmap@orbifly.com




SOURCES & CREDITS :

   NOAA       Earth
Advisory